Time;durP1;ratioP1;P1;durP2;ratioP2;P2;SDS_P1;SDS_P2;PMS_P1;PMS_P2;Temp;Humidity;BMP_temperature;BMP_pressure;BME280_temperature;BME280_humidity;BME280_pressure;Samples;Min_cycle;Max_cycle;Signal;HPM_P1;HPM_P2
2021/07/09 00:01:31;;;;;;;;;;;15.00;99.90;;;;;;4933422;29;19966;-74
2021/07/09 00:03:58;;;;;;;;;;;15.00;99.90;;;;;;4917596;29;20034;-74
2021/07/09 00:06:30;;;;;;;;;;;15.10;99.90;;;;;;4917692;29;19928;-74
2021/07/09 00:08:57;;;;;;;;;;;15.00;99.90;;;;;;4917652;29;19934;-74
2021/07/09 00:11:23;;;;;;;;;;;15.00;99.90;;;;;;4933224;29;19966;-74
2021/07/09 00:13:50;;;;;;;;;;;15.10;99.90;;;;;;4917498;29;20030;-74
2021/07/09 00:16:18;;;;;;;;;;;15.00;99.90;;;;;;4933327;29;19993;-74
2021/07/09 00:18:50;;;;;;;;;;;15.00;99.90;;;;;;4917753;29;19962;-74
2021/07/09 00:21:16;;;;;;;;;;;15.10;99.90;;;;;;4917213;29;19927;-74
2021/07/09 00:23:44;;;;;;;;;;;15.00;99.90;;;;;;4917396;29;20034;-74
2021/07/09 00:26:11;;;;;;;;;;;15.00;99.90;;;;;;4917432;29;19955;-74
2021/07/09 00:28:42;;;;;;;;;;;15.00;99.90;;;;;;4901556;29;19931;-75
2021/07/09 00:31:14;;;;;;;;;;;15.00;99.90;;;;;;4917064;29;19927;-74
2021/07/09 00:33:41;;;;;;;;;;;15.00;99.90;;;;;;4917391;29;20019;-74
2021/07/09 00:36:08;;;;;;;;;;;15.00;99.90;;;;;;4918318;29;19929;-74
2021/07/09 00:38:39;;;;;;;;;;;14.90;99.90;;;;;;4917443;29;19934;-74
2021/07/09 00:41:11;;;;;;;;;;;14.90;99.90;;;;;;4916756;29;19941;-74
2021/07/09 00:43:43;;;;;;;;;;;14.90;99.90;;;;;;4918135;29;19931;-74
2021/07/09 00:46:15;;;;;;;;;;;14.90;99.90;;;;;;4917420;29;20305;-74
2021/07/09 00:48:41;;;;;;;;;;;14.90;99.90;;;;;;4916960;29;19927;-74
2021/07/09 00:51:10;;;;;;;;;;;14.80;99.90;;;;;;4918014;29;19977;-74
2021/07/09 00:53:37;;;;;;;;;;;14.80;99.90;;;;;;4916912;29;20398;-74
2021/07/09 00:56:09;;;;;;;;;;;14.80;99.90;;;;;;4916200;29;19927;-74
2021/07/09 00:58:41;;;;;;;;;;;14.80;99.90;;;;;;4917937;29;19928;-74
2021/07/09 01:01:07;;;;;;;;;;;14.80;99.90;;;;;;4931861;29;19933;-74
2021/07/09 01:03:34;;;;;;;;;;;14.70;99.90;;;;;;4931888;29;20400;-74
2021/07/09 01:06:00;;;;;;;;;;;14.70;99.90;;;;;;4916125;29;19970;-74
2021/07/09 01:08:33;;;;;;;;;;;14.70;99.90;;;;;;4900888;29;19926;-75
2021/07/09 01:11:00;;;;;;;;;;;14.70;99.90;;;;;;4916008;29;20030;-75
2021/07/09 01:13:31;;;;;;;;;;;14.60;99.90;;;;;;4931208;29;20383;-75
2021/07/09 01:15:58;;;;;;;;;;;14.60;99.90;;;;;;4900325;29;19982;-75
2021/07/09 01:18:30;;;;;;;;;;;14.50;99.90;;;;;;4917237;29;20267;-74
2021/07/09 01:21:07;;;;;;;;;;;14.50;99.90;;;;;;4915349;29;19927;-75
2021/07/09 01:23:34;;;;;;;;;;;14.50;99.90;;;;;;4931630;29;19931;-74
2021/07/09 01:26:08;;;;;;;;;;;14.40;99.90;;;;;;4899412;29;20382;-74
2021/07/09 01:28:40;;;;;;;;;;;14.40;99.90;;;;;;4916392;29;20039;-74
2021/07/09 01:31:08;;;;;;;;;;;14.30;99.90;;;;;;4931741;29;19978;-74
2021/07/09 01:33:39;;;;;;;;;;;14.30;99.90;;;;;;4916100;29;19927;-74
2021/07/09 01:36:11;;;;;;;;;;;14.20;99.90;;;;;;4901215;29;19949;-74
2021/07/09 01:38:38;;;;;;;;;;;14.10;99.90;;;;;;4916664;29;20298;-74
2021/07/09 01:41:09;;;;;;;;;;;14.10;99.90;;;;;;4916013;29;20302;-74
2021/07/09 01:43:36;;;;;;;;;;;14.00;99.90;;;;;;4916532;29;19927;-75
2021/07/09 01:46:03;;;;;;;;;;;13.90;99.90;;;;;;4915194;29;19931;-75
2021/07/09 01:48:29;;;;;;;;;;;13.80;99.90;;;;;;4915575;29;19967;-74
2021/07/09 01:50:56;;;;;;;;;;;13.80;99.90;;;;;;4917144;29;19927;-74
2021/07/09 01:53:28;;;;;;;;;;;13.70;99.90;;;;;;4915865;29;19933;-74
2021/07/09 01:55:54;;;;;;;;;;;13.70;99.90;;;;;;4915690;29;20309;-74
2021/07/09 01:58:21;;;;;;;;;;;13.70;99.90;;;;;;4916720;29;19927;-74
2021/07/09 02:00:53;;;;;;;;;;;13.70;99.90;;;;;;4916352;29;19927;-74
2021/07/09 02:03:19;;;;;;;;;;;13.70;99.90;;;;;;4915407;29;19994;-74
2021/07/09 02:05:46;;;;;;;;;;;13.60;99.90;;;;;;4899898;29;19962;-74
2021/07/09 02:08:13;;;;;;;;;;;13.70;99.90;;;;;;4915636;29;20580;-74
2021/07/09 02:10:42;;;;;;;;;;;13.60;99.90;;;;;;4915570;29;20297;-74
2021/07/09 02:13:09;;;;;;;;;;;13.60;99.90;;;;;;4916302;29;20042;-74
2021/07/09 02:15:44;;;;;;;;;;;13.60;99.90;;;;;;4915638;29;19927;-74
2021/07/09 02:18:11;;;;;;;;;;;13.60;99.90;;;;;;4915595;29;19934;-74
2021/07/09 02:20:38;;;;;;;;;;;13.60;99.90;;;;;;4914830;29;19970;-74
2021/07/09 02:23:06;;;;;;;;;;;13.60;99.90;;;;;;4930856;29;20309;-74
2021/07/09 02:25:39;;;;;;;;;;;13.50;99.90;;;;;;4915022;29;19931;-74
2021/07/09 02:28:10;;;;;;;;;;;13.50;99.90;;;;;;4916562;29;20416;-74
2021/07/09 02:30:37;;;;;;;;;;;13.50;99.90;;;;;;4915160;29;19927;-74
2021/07/09 02:33:04;;;;;;;;;;;13.50;99.90;;;;;;4899183;29;20473;-74
2021/07/09 02:35:37;;;;;;;;;;;13.50;99.90;;;;;;4930980;29;20308;-74
2021/07/09 02:38:04;;;;;;;;;;;13.60;99.90;;;;;;4930659;29;20378;-74
2021/07/09 02:40:31;;;;;;;;;;;13.60;99.90;;;;;;4930937;29;19933;-75
2021/07/09 02:42:59;;;;;;;;;;;13.60;99.90;;;;;;4930321;29;20021;-74
2021/07/09 02:45:26;;;;;;;;;;;13.60;99.90;;;;;;4914861;29;19933;-74
2021/07/09 02:47:53;;;;;;;;;;;13.60;99.90;;;;;;4930779;29;20058;-74
2021/07/09 02:50:25;;;;;;;;;;;13.60;99.90;;;;;;4914886;29;19933;-74
2021/07/09 02:52:51;;;;;;;;;;;13.70;99.90;;;;;;4915616;29;19927;-74
2021/07/09 02:55:23;;;;;;;;;;;13.70;99.90;;;;;;4915545;29;20418;-74
2021/07/09 02:57:54;;;;;;;;;;;13.70;99.90;;;;;;4930090;29;19927;-74
2021/07/09 03:00:21;;;;;;;;;;;13.80;99.90;;;;;;4899030;29;20022;-74
2021/07/09 03:02:49;;;;;;;;;;;13.80;99.90;;;;;;4930190;29;20026;-74
2021/07/09 03:05:15;;;;;;;;;;;13.80;99.90;;;;;;4915812;29;20322;-74
2021/07/09 03:07:42;;;;;;;;;;;13.80;99.90;;;;;;4930370;29;20031;-74
2021/07/09 03:10:14;;;;;;;;;;;13.90;99.90;;;;;;4915319;29;19931;-75
2021/07/09 03:12:41;;;;;;;;;;;13.90;99.90;;;;;;4914321;29;19934;-74
2021/07/09 03:15:12;;;;;;;;;;;13.90;99.90;;;;;;4914596;29;19927;-74
2021/07/09 03:17:39;;;;;;;;;;;13.90;99.90;;;;;;4930202;29;19927;-74
2021/07/09 03:20:08;;;;;;;;;;;13.90;99.90;;;;;;4898819;29;19927;-74
2021/07/09 03:22:40;;;;;;;;;;;13.90;99.90;;;;;;4929345;29;19943;-74
2021/07/09 03:25:08;;;;;;;;;;;13.90;99.90;;;;;;4914387;29;19970;-74
2021/07/09 03:27:35;;;;;;;;;;;13.90;99.90;;;;;;4914560;29;19963;-74
2021/07/09 03:30:02;;;;;;;;;;;13.90;99.90;;;;;;4914404;29;19931;-74
2021/07/09 03:32:29;;;;;;;;;;;13.90;99.90;;;;;;4918352;29;19927;-74
2021/07/09 03:34:56;;;;;;;;;;;13.90;99.90;;;;;;4918250;29;19934;-74
2021/07/09 03:37:22;;;;;;;;;;;13.90;99.90;;;;;;4918223;29;20017;-74
2021/07/09 03:39:54;;;;;;;;;;;13.80;99.90;;;;;;4933530;29;19966;-74
2021/07/09 03:42:20;;;;;;;;;;;13.90;99.90;;;;;;4917839;29;20025;-74
2021/07/09 03:44:52;;;;;;;;;;;13.80;99.90;;;;;;4918536;29;19933;-74
2021/07/09 03:47:24;;;;;;;;;;;13.80;99.90;;;;;;4918044;29;20429;-74
2021/07/09 03:49:55;;;;;;;;;;;13.80;99.90;;;;;;4918355;29;19933;-73
2021/07/09 03:52:27;;;;;;;;;;;13.80;99.90;;;;;;4932878;29;19931;-74
2021/07/09 03:54:58;;;;;;;;;;;13.80;99.90;;;;;;4917307;29;20299;-74
2021/07/09 03:57:25;;;;;;;;;;;13.80;99.90;;;;;;4932985;29;20373;-73
2021/07/09 03:59:57;;;;;;;;;;;13.80;99.90;;;;;;4917480;29;19938;-74
2021/07/09 04:02:38;;;;;;;;;;;13.80;99.90;;;;;;4918477;29;19983;-74
2021/07/09 04:05:05;;;;;;;;;;;13.70;99.90;;;;;;4932961;29;19934;-74
2021/07/09 04:07:38;;;;;;;;;;;13.80;99.90;;;;;;4932266;29;19959;-74
2021/07/09 04:10:05;;;;;;;;;;;13.80;99.90;;;;;;4916756;29;20314;-74
2021/07/09 04:12:32;;;;;;;;;;;13.70;99.90;;;;;;4934021;29;20409;-74
2021/07/09 04:14:58;;;;;;;;;;;13.70;99.90;;;;;;4935488;29;19927;-73
2021/07/09 04:17:25;;;;;;;;;;;13.70;99.90;;;;;;4917704;29;19927;-74
2021/07/09 04:19:56;;;;;;;;;;;13.70;99.90;;;;;;4917562;29;20014;-74
2021/07/09 04:22:23;;;;;;;;;;;13.70;99.90;;;;;;4915708;29;20017;-75
2021/07/09 04:24:50;;;;;;;;;;;13.70;99.90;;;;;;4916308;29;19963;-75
2021/07/09 04:27:21;;;;;;;;;;;13.70;99.90;;;;;;4916330;29;19927;-74
2021/07/09 04:29:53;;;;;;;;;;;13.70;99.90;;;;;;4916495;29;20006;-74
2021/07/09 04:32:25;;;;;;;;;;;13.70;99.90;;;;;;4916022;29;19937;-74
2021/07/09 04:34:52;;;;;;;;;;;13.70;99.90;;;;;;4916450;29;19973;-73
2021/07/09 04:37:23;;;;;;;;;;;13.70;99.90;;;;;;4917118;29;19933;-74
2021/07/09 04:39:56;;;;;;;;;;;13.70;99.90;;;;;;4916000;29;20398;-73
2021/07/09 04:42:28;;;;;;;;;;;13.60;99.90;;;;;;4916882;29;19931;-73
2021/07/09 04:44:59;;;;;;;;;;;13.60;99.90;;;;;;4915846;29;20370;-73
2021/07/09 04:47:31;;;;;;;;;;;13.60;99.90;;;;;;4932429;29;19927;-73
2021/07/09 04:50:03;;;;;;;;;;;13.60;99.90;;;;;;4916636;29;19931;-74
2021/07/09 04:52:35;;;;;;;;;;;13.60;99.90;;;;;;4914331;29;20029;-74
2021/07/09 04:55:02;;;;;;;;;;;13.60;99.90;;;;;;4916153;29;19963;-73
2021/07/09 04:57:29;;;;;;;;;;;13.60;99.90;;;;;;4900806;29;20033;-74
2021/07/09 04:59:55;;;;;;;;;;;13.60;99.90;;;;;;4928937;29;20021;-73
2021/07/09 05:02:24;;;;;;;;;;;13.60;99.90;;;;;;4907103;29;19958;-74
2021/07/09 05:04:52;;;;;;;;;;;13.60;99.90;;;;;;4908784;29;19927;-73
2021/07/09 05:07:19;;;;;;;;;;;13.60;99.90;;;;;;4914435;29;20033;-74
2021/07/09 05:09:45;;;;;;;;;;;13.60;99.90;;;;;;4915934;29;19970;-74
2021/07/09 05:12:12;;;;;;;;;;;13.60;99.90;;;;;;4930588;29;19927;-74
2021/07/09 05:14:39;;;;;;;;;;;13.60;99.90;;;;;;4915466;29;20002;-74
2021/07/09 05:17:10;;;;;;;;;;;13.60;99.90;;;;;;4915718;29;19927;-74
2021/07/09 05:19:42;;;;;;;;;;;13.60;99.90;;;;;;4931247;29;19934;-74
2021/07/09 05:22:13;;;;;;;;;;;13.60;99.90;;;;;;4930639;29;20343;-74
2021/07/09 05:24:40;;;;;;;;;;;13.60;99.90;;;;;;4991780;23;19942;-74
2021/07/09 05:27:12;;;;;;;;;;;13.50;99.90;;;;;;4923406;29;19953;-75
2021/07/09 05:29:38;;;;;;;;;;;13.50;99.90;;;;;;4935418;29;19966;-73
2021/07/09 05:32:05;;;;;;;;;;;13.50;99.90;;;;;;4929581;29;20476;-74
2021/07/09 05:34:37;;;;;;;;;;;13.50;99.90;;;;;;4937577;29;19949;-74
2021/07/09 05:37:04;;;;;;;;;;;13.50;99.90;;;;;;4937461;29;19933;-73
2021/07/09 05:39:35;;;;;;;;;;;13.50;99.90;;;;;;4938962;29;19927;-74
2021/07/09 05:42:07;;;;;;;;;;;13.60;99.90;;;;;;4937709;29;19984;-73
2021/07/09 05:44:33;;;;;;;;;;;13.60;99.90;;;;;;4955331;28;19933;-74
2021/07/09 05:47:05;;;;;;;;;;;13.60;99.90;;;;;;4937902;29;20300;-74
2021/07/09 05:49:32;;;;;;;;;;;13.60;99.90;;;;;;4955197;29;19927;-74
2021/07/09 05:51:58;;;;;;;;;;;13.60;99.90;;;;;;4921600;29;20354;-74
2021/07/09 05:54:25;;;;;;;;;;;13.60;99.90;;;;;;4936821;29;19961;-74
2021/07/09 05:56:52;;;;;;;;;;;13.60;99.90;;;;;;4954263;29;19973;-74
2021/07/09 05:59:18;;;;;;;;;;;13.60;99.90;;;;;;4937287;29;20048;-73
2021/07/09 06:01:45;;;;;;;;;;;13.60;99.90;;;;;;4936562;29;20443;-73
2021/07/09 06:04:13;;;;;;;;;;;13.60;99.90;;;;;;4936829;29;19961;-73
2021/07/09 06:06:45;;;;;;;;;;;13.60;99.90;;;;;;4954242;29;19926;-73
2021/07/09 06:09:17;;;;;;;;;;;13.60;99.90;;;;;;4954368;29;19932;-73
2021/07/09 06:11:43;;;;;;;;;;;13.70;99.90;;;;;;4953908;29;19970;-74
2021/07/09 06:14:10;;;;;;;;;;;13.70;99.90;;;;;;4937066;29;20452;-73
2021/07/09 06:16:37;;;;;;;;;;;13.70;99.90;;;;;;4921055;29;20016;-74
2021/07/09 06:19:08;;;;;;;;;;;13.70;99.90;;;;;;4937601;29;19926;-73
2021/07/09 06:21:40;;;;;;;;;;;13.70;99.90;;;;;;4936459;29;19937;-73
2021/07/09 06:24:07;;;;;;;;;;;13.70;99.90;;;;;;4936653;29;19927;-72
2021/07/09 06:26:40;;;;;;;;;;;13.70;99.90;;;;;;4936825;29;19948;-73
2021/07/09 06:29:12;;;;;;;;;;;13.70;99.90;;;;;;4936416;29;19966;-74
2021/07/09 06:31:44;;;;;;;;;;;13.80;99.90;;;;;;4936262;29;19926;-74
2021/07/09 06:34:15;;;;;;;;;;;13.70;99.90;;;;;;4936414;29;20381;-73
2021/07/09 06:36:47;;;;;;;;;;;13.80;99.90;;;;;;4936615;29;19933;-73
2021/07/09 06:39:14;;;;;;;;;;;13.80;99.90;;;;;;4936651;29;20585;-73
2021/07/09 06:41:45;;;;;;;;;;;13.70;99.90;;;;;;4936003;29;19926;-73
2021/07/09 06:44:17;;;;;;;;;;;13.80;99.90;;;;;;4936344;29;19926;-73
2021/07/09 06:46:44;;;;;;;;;;;13.80;99.90;;;;;;4936549;29;20017;-73
2021/07/09 06:49:10;;;;;;;;;;;13.80;99.90;;;;;;4936425;29;20037;-73
2021/07/09 06:51:37;;;;;;;;;;;13.80;99.90;;;;;;4953222;29;19962;-74
2021/07/09 06:54:08;;;;;;;;;;;13.70;99.90;;;;;;4916925;29;19949;-74
2021/07/09 06:56:35;;;;;;;;;;;13.70;99.90;;;;;;4917526;29;20397;-73
2021/07/09 06:59:02;;;;;;;;;;;13.70;99.90;;;;;;4917381;29;20033;-74
2021/07/09 07:01:29;;;;;;;;;;;13.70;99.90;;;;;;4916914;29;20021;-73
2021/07/09 07:04:00;;;;;;;;;;;13.80;99.90;;;;;;4916998;29;19937;-73
2021/07/09 07:06:32;;;;;;;;;;;13.80;99.90;;;;;;4933972;29;20300;-74
2021/07/09 07:09:04;;;;;;;;;;;13.80;99.90;;;;;;4917173;29;20033;-74
2021/07/09 07:11:30;;;;;;;;;;;13.90;99.90;;;;;;4933805;29;20087;-74
2021/07/09 07:13:58;;;;;;;;;;;13.80;99.90;;;;;;4916982;29;19974;-74
2021/07/09 07:16:29;;;;;;;;;;;13.90;99.90;;;;;;4934238;29;20389;-73
2021/07/09 07:18:56;;;;;;;;;;;13.90;99.90;;;;;;4916748;29;20022;-73
2021/07/09 07:21:23;;;;;;;;;;;13.90;99.90;;;;;;4917102;29;19935;-74
2021/07/09 07:23:49;;;;;;;;;;;13.90;99.90;;;;;;4934905;29;20018;-74
2021/07/09 07:26:22;;;;;;;;;;;14.00;99.90;;;;;;4902892;29;20288;-74
2021/07/09 07:28:49;;;;;;;;;;;13.90;99.90;;;;;;4917196;29;20029;-74
2021/07/09 07:31:21;;;;;;;;;;;14.00;99.90;;;;;;4916702;29;19931;-74
2021/07/09 07:33:52;;;;;;;;;;;13.90;99.90;;;;;;4933996;29;19933;-74
2021/07/09 07:36:24;;;;;;;;;;;13.90;99.90;;;;;;4917503;29;20415;-74
2021/07/09 07:38:55;;;;;;;;;;;13.90;99.90;;;;;;4933955;29;19933;-74
2021/07/09 07:41:22;;;;;;;;;;;13.90;99.90;;;;;;4916603;29;20189;-73
2021/07/09 07:43:49;;;;;;;;;;;13.90;99.90;;;;;;4933912;29;20029;-74
2021/07/09 07:46:21;;;;;;;;;;;13.90;99.90;;;;;;4916740;29;19935;-74
2021/07/09 07:48:48;;;;;;;;;;;13.90;99.90;;;;;;4916974;29;19950;-74
2021/07/09 07:51:22;;;;;;;;;;;14.00;99.90;;;;;;4933568;29;19977;-75
2021/07/09 07:53:48;;;;;;;;;;;14.00;99.90;;;;;;4916734;29;20294;-74
2021/07/09 07:56:21;;;;;;;;;;;14.00;99.90;;;;;;4902085;29;19933;-74
2021/07/09 07:58:52;;;;;;;;;;;14.10;99.90;;;;;;4916619;29;19962;-74
2021/07/09 08:01:25;;;;;;;;;;;14.10;99.90;;;;;;4917214;29;20431;-74
2021/07/09 08:03:52;;;;;;;;;;;14.10;99.90;;;;;;4916862;29;20025;-74
2021/07/09 08:06:18;;;;;;;;;;;14.20;99.90;;;;;;4916716;29;19926;-74
2021/07/09 08:08:50;;;;;;;;;;;14.10;99.90;;;;;;4901806;29;20025;-74
2021/07/09 08:11:22;;;;;;;;;;;14.20;99.90;;;;;;4917288;29;20640;-74
2021/07/09 08:13:54;;;;;;;;;;;14.20;99.90;;;;;;4916717;29;19966;-73
2021/07/09 08:16:25;;;;;;;;;;;14.20;99.90;;;;;;4901718;29;19963;-74
2021/07/09 08:18:52;;;;;;;;;;;14.20;99.90;;;;;;4918741;29;20336;-74
2021/07/09 08:21:24;;;;;;;;;;;14.20;99.90;;;;;;4919757;29;19930;-74
2021/07/09 08:23:50;;;;;;;;;;;14.20;99.90;;;;;;4937109;29;20025;-73
2021/07/09 08:26:17;;;;;;;;;;;14.20;99.90;;;;;;4937146;29;20197;-74
2021/07/09 08:28:49;;;;;;;;;;;14.20;99.90;;;;;;4920086;29;19933;-73
2021/07/09 08:31:22;;;;;;;;;;;14.30;99.90;;;;;;4930525;29;19926;-74
2021/07/09 08:33:48;;;;;;;;;;;14.30;99.90;;;;;;4923006;29;20464;-74
2021/07/09 08:36:20;;;;;;;;;;;14.30;99.90;;;;;;4957518;29;19952;-74
2021/07/09 08:38:47;;;;;;;;;;;14.40;99.90;;;;;;4923041;29;19927;-73
2021/07/09 08:41:19;;;;;;;;;;;14.50;99.90;;;;;;4938161;29;19926;-74
2021/07/09 08:43:51;;;;;;;;;;;14.50;99.90;;;;;;4938544;29;20025;-73
2021/07/09 08:46:17;;;;;;;;;;;14.60;99.90;;;;;;4938583;29;19971;-74
2021/07/09 08:48:49;;;;;;;;;;;14.70;99.90;;;;;;4939297;29;20033;-74
2021/07/09 08:51:21;;;;;;;;;;;14.70;99.90;;;;;;4924229;29;20025;-74
2021/07/09 08:53:53;;;;;;;;;;;14.70;99.90;;;;;;4955547;28;19926;-74
2021/07/09 08:56:19;;;;;;;;;;;14.70;99.90;;;;;;4938352;29;19927;-74
2021/07/09 08:58:51;;;;;;;;;;;14.80;99.90;;;;;;4923190;29;19930;-74
2021/07/09 09:01:23;;;;;;;;;;;14.80;99.90;;;;;;4937633;29;19938;-73
2021/07/09 09:04:04;;;;;;;;;;;14.80;99.90;;;;;;4952363;28;20030;-74
2021/07/09 09:06:31;;;;;;;;;;;14.80;99.90;;;;;;4919908;29;19970;-74
2021/07/09 09:08:58;;;;;;;;;;;14.90;99.90;;;;;;4919188;29;20029;-74
2021/07/09 09:11:32;;;;;;;;;;;14.90;99.90;;;;;;4919460;29;20407;-74
2021/07/09 09:14:20;;;;;;;;;;;14.90;99.90;;;;;;4919364;29;20377;-74
2021/07/09 09:16:47;;;;;;;;;;;14.90;99.90;;;;;;4919462;29;20025;-74
2021/07/09 09:19:18;;;;;;;;;;;15.00;99.90;;;;;;4919357;29;20029;-74
2021/07/09 09:22:07;;;;;;;;;;;15.00;99.90;;;;;;4918846;29;19926;-74
2021/07/09 09:24:39;;;;;;;;;;;14.90;99.90;;;;;;4920303;29;19933;-74
2021/07/09 09:27:24;;;;;;;;;;;15.10;99.90;;;;;;4924440;29;19933;-74
2021/07/09 09:29:50;;;;;;;;;;;15.10;99.90;;;;;;4938055;29;20401;-74
2021/07/09 09:32:18;;;;;;;;;;;15.10;99.90;;;;;;4937619;29;20029;-74
2021/07/09 09:34:49;;;;;;;;;;;15.10;99.90;;;;;;4938304;29;19927;-74
2021/07/09 09:37:21;;;;;;;;;;;15.00;99.90;;;;;;4938333;29;20444;-75
2021/07/09 09:39:53;;;;;;;;;;;15.10;99.90;;;;;;4923201;29;19926;-75
2021/07/09 09:42:25;;;;;;;;;;;15.00;99.90;;;;;;4938189;29;20029;-74
2021/07/09 09:44:57;;;;;;;;;;;14.90;99.90;;;;;;4938847;29;19933;-73
2021/07/09 09:47:26;;;;;;;;;;;15.00;99.90;;;;;;4938136;29;20017;-74
2021/07/09 09:49:59;;;;;;;;;;;15.00;99.90;;;;;;4939064;29;20468;-74
2021/07/09 09:52:44;;;;;;;;;;;15.10;99.90;;;;;;4937798;29;20316;-74
2021/07/09 09:55:14;;;;;;;;;;;15.10;99.90;;;;;;4938183;29;20017;-74
2021/07/09 09:57:47;;;;;;;;;;;15.10;99.90;;;;;;4922862;29;19926;-74
2021/07/09 10:00:16;;;;;;;;;;;15.20;99.90;;;;;;4937787;29;19982;-74
2021/07/09 10:02:48;;;;;;;;;;;15.20;99.90;;;;;;4937551;29;19930;-74
2021/07/09 10:05:20;;;;;;;;;;;15.30;99.90;;;;;;4938721;29;19936;-73
2021/07/09 10:07:47;;;;;;;;;;;15.30;99.90;;;;;;4937982;29;19927;-74
2021/07/09 10:10:19;;;;;;;;;;;15.30;99.90;;;;;;4938627;29;19985;-74
2021/07/09 10:12:48;;;;;;;;;;;15.40;99.90;;;;;;4937379;29;19966;-73
2021/07/09 10:15:15;;;;;;;;;;;15.40;99.90;;;;;;4937425;29;20029;-74
2021/07/09 10:17:48;;;;;;;;;;;15.50;99.90;;;;;;4922566;29;20300;-73
2021/07/09 10:20:21;;;;;;;;;;;15.50;99.90;;;;;;4938764;29;19927;-74
2021/07/09 10:22:48;;;;;;;;;;;15.60;99.90;;;;;;4935221;29;20364;-74
2021/07/09 10:25:21;;;;;;;;;;;15.60;99.90;;;;;;4935260;29;20026;-74
2021/07/09 10:27:52;;;;;;;;;;;15.60;99.90;;;;;;4922054;29;19930;-73
2021/07/09 10:30:35;;;;;;;;;;;15.60;99.90;;;;;;4936709;29;19933;-74
2021/07/09 10:33:22;;;;;;;;;;;15.60;99.90;;;;;;4936426;28;20075;-73
2021/07/09 10:35:50;;;;;;;;;;;15.60;99.90;;;;;;4936575;29;19957;-74
2021/07/09 10:38:19;;;;;;;;;;;15.50;99.90;;;;;;4936759;29;19933;-74
2021/07/09 10:40:51;;;;;;;;;;;15.50;99.90;;;;;;4921108;29;19933;-74
2021/07/09 10:43:22;;;;;;;;;;;15.50;99.90;;;;;;4936107;29;19978;-74
2021/07/09 10:46:04;;;;;;;;;;;15.50;99.90;;;;;;4953912;29;20024;-74
2021/07/09 10:48:35;;;;;;;;;;;15.50;99.90;;;;;;4928110;29;20449;-74
2021/07/09 10:51:02;;;;;;;;;;;15.60;99.90;;;;;;4935706;29;20241;-75
2021/07/09 10:53:34;;;;;;;;;;;15.70;99.90;;;;;;4936628;29;20009;-74
2021/07/09 10:56:08;;;;;;;;;;;15.80;99.90;;;;;;4937287;29;20320;-73
2021/07/09 10:58:35;;;;;;;;;;;15.80;99.90;;;;;;4937794;29;19965;-74
2021/07/09 11:01:11;;;;;;;;;;;16.00;99.90;;;;;;4922663;29;19926;-73
2021/07/09 11:03:39;;;;;;;;;;;16.10;99.90;;;;;;4936534;29;19934;-73
2021/07/09 11:06:19;;;;;;;;;;;16.30;99.90;;;;;;4956031;29;20005;-74
2021/07/09 11:08:50;;;;;;;;;;;16.50;99.90;;;;;;4936476;29;19977;-74
2021/07/09 11:11:28;;;;;;;;;;;16.60;99.90;;;;;;4933774;29;19927;-74
2021/07/09 11:13:59;;;;;;;;;;;16.80;99.90;;;;;;4932215;29;19927;-73
2021/07/09 11:16:30;;;;;;;;;;;16.80;99.90;;;;;;4951602;29;20021;-74
2021/07/09 11:19:02;;;;;;;;;;;16.80;99.90;;;;;;4917023;29;20017;-73
2021/07/09 11:21:30;;;;;;;;;;;16.80;99.90;;;;;;4916531;29;19933;-73
2021/07/09 11:24:00;;;;;;;;;;;16.80;99.90;;;;;;4919653;29;19933;-74
2021/07/09 11:26:34;;;;;;;;;;;16.80;99.90;;;;;;4952713;29;19969;-73
2021/07/09 11:29:26;;;;;;;;;;;16.90;99.90;;;;;;4917086;29;19970;-74
2021/07/09 11:32:03;;;;;;;;;;;16.90;99.90;;;;;;4932240;29;20029;-74
2021/07/09 11:34:39;;;;;;;;;;;17.20;99.90;;;;;;4931229;29;19933;-74
2021/07/09 11:37:08;;;;;;;;;;;17.40;99.90;;;;;;4910192;29;20080;-74
2021/07/09 11:39:36;;;;;;;;;;;17.60;99.90;;;;;;4941773;29;19926;-74
2021/07/09 11:42:09;;;;;;;;;;;17.70;99.90;;;;;;4917847;29;20460;-74
2021/07/09 11:44:48;;;;;;;;;;;17.90;99.90;;;;;;4917255;29;19943;-75
2021/07/09 11:47:15;;;;;;;;;;;18.00;99.90;;;;;;4953188;29;19965;-74
2021/07/09 11:49:45;;;;;;;;;;;18.10;99.90;;;;;;4932445;29;19933;-74
2021/07/09 11:52:12;;;;;;;;;;;18.40;99.90;;;;;;4916383;29;19930;-73
2021/07/09 11:54:45;;;;;;;;;;;18.60;99.90;;;;;;4926631;29;20308;-74
2021/07/09 11:57:13;;;;;;;;;;;18.80;99.90;;;;;;4939425;29;19960;-74
2021/07/09 11:59:48;;;;;;;;;;;19.20;99.90;;;;;;4955511;29;20446;-74
2021/07/09 12:02:16;;;;;;;;;;;19.20;99.90;;;;;;4936244;29;20021;-74
2021/07/09 12:04:54;;;;;;;;;;;19.20;99.90;;;;;;4912268;29;20308;-74
2021/07/09 12:07:26;;;;;;;;;;;19.20;99.90;;;;;;4920296;29;20108;-74
2021/07/09 12:10:10;;;;;;;;;;;19.30;99.90;;;;;;4920519;29;19989;-74
2021/07/09 12:12:47;;;;;;;;;;;19.30;99.90;;;;;;4923149;29;19930;-74
2021/07/09 12:15:20;;;;;;;;;;;19.50;99.90;;;;;;4944671;29;20021;-73
2021/07/09 12:17:59;;;;;;;;;;;19.50;99.90;;;;;;4937886;29;20025;-74
2021/07/09 12:20:31;;;;;;;;;;;19.60;99.90;;;;;;4955235;29;19931;-74
2021/07/09 12:23:03;;;;;;;;;;;19.70;99.90;;;;;;4935638;29;19976;-74
2021/07/09 12:25:33;;;;;;;;;;;19.60;99.90;;;;;;4927311;29;20013;-74
2021/07/09 12:28:02;;;;;;;;;;;19.60;99.90;;;;;;4938780;29;19953;-74
2021/07/09 12:30:32;;;;;;;;;;;19.90;99.90;;;;;;4938395;29;19970;-74
2021/07/09 12:33:00;;;;;;;;;;;20.00;99.90;;;;;;4935412;29;20308;-74
2021/07/09 12:35:29;;;;;;;;;;;20.10;99.90;;;;;;4929157;29;20021;-74
2021/07/09 12:38:05;;;;;;;;;;;20.00;99.90;;;;;;4939466;29;19927;-74
2021/07/09 12:40:44;;;;;;;;;;;20.10;99.90;;;;;;4938589;29;19927;-74
2021/07/09 12:43:15;;;;;;;;;;;20.40;99.90;;;;;;4935222;29;19934;-74
2021/07/09 12:46:04;;;;;;;;;;;20.60;99.90;;;;;;4948830;29;19933;-74
2021/07/09 12:48:40;;;;;;;;;;;20.70;99.90;;;;;;4935423;29;19926;-75
2021/07/09 12:51:19;;;;;;;;;;;20.90;99.90;;;;;;4935349;29;19927;-74
2021/07/09 12:53:51;;;;;;;;;;;20.90;99.90;;;;;;4920061;29;20369;-73
2021/07/09 12:56:18;;;;;;;;;;;20.80;99.90;;;;;;4932771;29;19926;-74
2021/07/09 12:58:45;;;;;;;;;;;20.60;99.90;;;;;;4935204;29;20049;-73
2021/07/09 13:01:14;;;;;;;;;;;20.70;99.90;;;;;;4934770;29;19927;-74
2021/07/09 13:03:46;;;;;;;;;;;21.00;99.90;;;;;;4921888;28;19930;-74
2021/07/09 13:06:18;;;;;;;;;;;21.20;99.90;;;;;;4913844;29;19937;-74
2021/07/09 13:08:45;;;;;;;;;;;21.30;99.90;;;;;;4935159;29;19998;-74
2021/07/09 13:11:17;;;;;;;;;;;21.30;99.90;;;;;;4934679;29;19927;-74
2021/07/09 13:13:43;;;;;;;;;;;21.10;99.90;;;;;;4936868;29;19954;-74
2021/07/09 13:16:16;;;;;;;;;;;20.80;99.90;;;;;;4917089;29;20014;-74
2021/07/09 13:18:49;;;;;;;;;;;20.60;99.90;;;;;;4934909;29;20296;-74
2021/07/09 13:21:22;;;;;;;;;;;20.40;99.90;;;;;;4934469;29;19978;-74
2021/07/09 13:24:07;;;;;;;;;;;20.40;99.90;;;;;;4936546;29;20240;-74
2021/07/09 13:26:38;;;;;;;;;;;20.20;99.90;;;;;;4934334;29;19986;-74
2021/07/09 13:29:16;;;;;;;;;;;19.90;99.90;;;;;;4918933;29;20084;-74
2021/07/09 13:31:43;;;;;;;;;;;19.90;99.90;;;;;;4918864;29;20428;-74
2021/07/09 13:34:15;;;;;;;;;;;19.80;99.90;;;;;;4935986;29;19982;-74
2021/07/09 13:36:43;;;;;;;;;;;19.90;99.90;;;;;;4932907;29;19933;-74
2021/07/09 13:39:10;;;;;;;;;;;20.30;99.90;;;;;;4934958;29;19927;-74
2021/07/09 13:41:42;;;;;;;;;;;20.50;99.90;;;;;;4936172;29;20313;-75
2021/07/09 13:44:14;;;;;;;;;;;20.70;99.90;;;;;;4918363;29;19930;-75
2021/07/09 13:46:45;;;;;;;;;;;20.80;99.90;;;;;;4933814;29;19937;-75
2021/07/09 13:49:16;;;;;;;;;;;20.80;99.90;;;;;;4933402;29;19927;-74
2021/07/09 13:51:43;;;;;;;;;;;20.40;99.90;;;;;;4936990;29;19926;-75
2021/07/09 13:54:15;;;;;;;;;;;20.30;99.90;;;;;;4951230;28;19933;-75
2021/07/09 13:56:46;;;;;;;;;;;20.50;99.90;;;;;;4943341;29;20013;-74
2021/07/09 13:59:13;;;;;;;;;;;20.70;99.90;;;;;;4918709;29;20018;-74
2021/07/09 14:01:45;;;;;;;;;;;20.70;99.90;;;;;;4940583;29;19927;-73
2021/07/09 14:04:16;;;;;;;;;;;20.50;99.90;;;;;;4935416;29;19926;-74
2021/07/09 14:06:43;;;;;;;;;;;20.60;99.90;;;;;;4949816;28;19933;-72
2021/07/09 14:09:10;;;;;;;;;;;20.70;99.90;;;;;;4918650;29;20026;-74
2021/07/09 14:11:41;;;;;;;;;;;20.80;99.90;;;;;;4932663;29;20013;-74
2021/07/09 14:14:08;;;;;;;;;;;20.90;99.90;;;;;;4941784;29;20278;-74
2021/07/09 14:16:39;;;;;;;;;;;21.00;99.90;;;;;;4933184;29;19933;-73
2021/07/09 14:19:11;;;;;;;;;;;21.00;99.90;;;;;;4918767;29;20412;-74
2021/07/09 14:21:43;;;;;;;;;;;21.00;99.90;;;;;;4917834;29;19930;-73
2021/07/09 14:24:10;;;;;;;;;;;20.90;99.90;;;;;;4936111;29;19933;-74
2021/07/09 14:26:36;;;;;;;;;;;20.70;99.90;;;;;;4932114;29;19954;-73
2021/07/09 14:29:08;;;;;;;;;;;20.80;99.90;;;;;;4934121;29;20382;-74
2021/07/09 14:31:35;;;;;;;;;;;20.60;99.90;;;;;;4933691;29;20346;-74
2021/07/09 14:34:07;;;;;;;;;;;20.60;99.90;;;;;;4922927;29;20440;-74